Latest Weather Observations for Rottnest Island

IDW60901

Issued at 10:15 am WST Thursday 21 August 2014 (issued every 10 minutes, with the page automatically refreshed every 10 minutes)

About weather observations | Map of Perth area stations | Latest observations for Perth area | Other Formats
Station Details ID: 009193 Name: ROTTNEST ISLAND Lat: -32.01 Lon: 115.50 Height: 43.1 m
Data from the previous 72 hours. | See also: Recent months at Rottnest Island
Date/Time
WST
Tmp

°C
App
Tmp
°C
Dew
Point
°C
Rel
Hum
%
Delta-T

°C
Wind Press
QNH
hPa
Press
MSL
hPa
Rain
since
9 am
mm
Dir
 
Spd
km/h
Gust
km/h
Spd
kts
Gust
kts
21/10:00am 17.9 11.4 10.5 62 4.0 W 35 44 19 24 1012.4 1012.3 0.0
21/09:30am 18.2 11.3 10.3 60 4.2 W 37 50 20 27 1012.2 1012.1 0.0
21/09:07am 18.3 12.0 12.3 68 3.3 W 37 56 20 30 1011.7 1011.6 0.0
21/09:00am 18.0 11.0 11.3 65 3.7 W 39 56 21 30 1011.6 1011.5 8.0
21/08:30am 18.2 10.6 11.7 66 3.6 WNW 43 50 23 27 1011.0 1010.9 8.0
21/08:00am 17.7 12.0 13.0 74 2.6 W 35 43 19 23 1010.6 1010.5 8.0
21/07:46am 16.9 10.4 13.0 78 2.2 W 39 57 21 31 1010.6 1010.5 8.0
21/07:30am 17.6 9.8 13.1 75 2.5 WNW 46 57 25 31 1010.4 1010.3 8.0
21/07:00am 17.6 11.3 17.0 96 0.4 W 46 56 25 30 1009.8 1009.7 8.0
21/06:30am 17.2 11.4 17.0 99 0.1 W 43 54 23 29 1009.3 1009.2 8.0
21/06:05am 17.1 13.2 16.9 99 0.1 WNW 33 54 18 29 1008.8 1008.7 8.0
21/06:00am 17.0 13.6 16.8 99 0.1 NNW 30 41 16 22 1008.5 1008.4 8.0
21/05:52am 17.0 13.0 16.8 99 0.1 NNW 33 41 18 22 1008.2 1008.1 7.6
21/05:43am 17.5 10.5 17.3 99 0.1 NW 50 76 27 41 1008.5 1008.4 7.6
21/05:41am 17.4 9.6 17.2 99 0.1 NNW 54 91 29 49 1006.7 1006.7 7.6
21/05:38am 17.3 10.2 17.1 99 0.1 N 50 69 27 37 1008.2 1008.1 6.2
21/05:30am 17.4 10.3 17.1 98 0.2 N 50 63 27 34 1007.0 1007.0 2.8
21/05:00am 17.4 9.1 16.9 97 0.3 N 56 67 30 36 1006.4 1006.4 1.4
21/04:41am 17.7 9.7 16.7 94 0.6 N 54 74 29 40 1006.6 1006.6 0.8
21/04:30am 17.6 9.2 16.5 93 0.7 N 56 70 30 38 1007.1 1007.1 0.8
21/04:00am 18.1 11.4 16.1 88 1.2 N 46 61 25 33 1007.4 1007.4 0.8
21/03:30am 18.4 11.9 16.6 89 1.1 N 46 59 25 32 1007.5 1007.5 0.6
21/03:00am 17.9 10.6 16.4 91 0.9 N 50 59 27 32 1008.0 1007.9 0.6
21/02:30am 18.0 10.7 15.6 86 1.4 N 48 59 26 32 1008.6 1008.5 0.6
21/02:00am 17.7 11.0 15.1 85 1.5 N 44 59 24 32 1008.9 1008.8 0.6
21/01:30am 17.7 10.6 15.0 84 1.6 N 46 57 25 31 1009.5 1009.4 0.6
21/01:00am 17.8 10.7 15.1 84 1.6 N 46 54 25 29 1009.8 1009.7 0.6
21/12:30am 18.3 10.8 13.8 75 2.6 N 46 57 25 31 1010.2 1010.1 0.6
21/12:00am 18.3 11.2 14.0 76 2.5 N 44 56 24 30 1010.5 1010.4 0.6
 
Date/Time
WST
Tmp

°C
App
Tmp
°C
Dew
Point
°C
Rel
Hum
%
Delta-T

°C
Wind Press
QNH
hPa
Press
MSL
hPa
Rain
since
9 am
mm
Dir
 
Spd
km/h
Gust
km/h
Spd
kts
Gust
kts
20/11:30pm 18.5 10.9 13.6 73 2.8 N 46 59 25 32 1010.9 1010.8 0.6
20/11:07pm 18.3 12.4 14.8 80 2.0 N 39 57 21 31 1011.1 1011.0 0.6
20/11:00pm 18.3 12.1 14.8 80 2.0 N 41 50 22 27 1011.3 1011.2 0.6
20/10:43pm 18.3 13.1 14.4 78 2.3 N 35 54 19 29 1011.7 1011.6 0.6
20/10:30pm 18.7 11.4 13.3 71 3.1 N 44 59 24 32 1011.6 1011.5 0.6
20/10:26pm 18.7 12.3 13.3 71 3.1 N 39 57 21 31 1011.8 1011.7 0.6
20/10:00pm 18.8 12.0 13.0 69 3.3 N 41 52 22 28 1012.2 1012.1 0.6
20/09:30pm 18.5 12.0 12.9 70 3.1 NNW 39 52 21 28 1012.6 1012.5 0.6
20/09:00pm 18.5 11.3 12.0 66 3.6 NNW 41 50 22 27 1012.8 1012.7 0.6
20/08:30pm 18.4 11.0 11.2 63 3.9 NNW 41 48 22 26 1013.0 1012.9 0.6
20/08:00pm 18.4 12.8 12.2 67 3.4 NNW 33 43 18 23 1013.2 1013.1 0.6
20/07:30pm 18.3 12.5 11.6 65 3.7 NNW 33 44 18 24 1013.3 1013.2 0.6
20/07:00pm 18.2 12.6 11.5 65 3.7 NNW 32 41 17 22 1013.3 1013.2 0.6
20/06:30pm 18.0 12.4 11.6 66 3.5 NNW 32 39 17 21 1013.3 1013.2 0.6
20/06:00pm 17.7 12.9 11.7 68 3.3 NNW 28 35 15 19 1013.1 1013.0 0.6
20/05:30pm 17.7 12.8 11.3 66 3.5 NW 28 35 15 19 1013.1 1013.0 0.6
20/05:00pm 18.3 12.5 10.7 61 4.1 NW 32 43 17 23 1013.2 1013.1 0.6
20/04:30pm 17.9 12.1 10.8 63 3.8 NW 32 41 17 22 1013.2 1013.1 0.6
20/04:00pm 19.0 13.7 11.1 60 4.3 NW 30 39 16 21 1013.3 1013.2 0.6
20/03:30pm 18.3 12.7 10.2 59 4.3 NNW 30 41 16 22 1013.3 1013.2 0.6
20/03:00pm 19.0 14.0 11.1 60 4.3 NW 28 35 15 19 1013.3 1013.2 0.6
20/02:30pm 18.6 15.0 11.7 64 3.8 NW 22 26 12 14 1013.4 1013.3 0.6
20/02:00pm 18.0 15.4 13.1 73 2.8 N 19 24 10 13 1013.5 1013.4 0.6
20/01:30pm 18.2 15.6 13.9 76 2.5 N 20 26 11 14 1013.8 1013.7 0.6
20/01:00pm 17.3 14.6 13.6 79 2.1 N 20 26 11 14 1014.1 1014.0 0.6
20/12:30pm 15.7 12.9 13.2 85 1.4 NNW 20 30 11 16 1014.6 1014.5 0.6
20/12:00pm 16.5 14.7 13.4 82 1.7 N 15 19 8 10 1015.1 1015.0 0.6
20/11:30am 15.1 11.2 12.2 83 1.6 NW 24 37 13 20 1015.7 1015.6 0.6
20/11:00am 15.5 11.9 13.0 85 1.4 NW 24 32 13 17 1015.5 1015.4 0.4
20/10:30am 15.4 10.8 13.6 89 1.0 NW 30 37 16 20 1015.7 - 0.4
20/10:00am 15.3 10.3 13.5 89 1.0 NNW 32 37 17 20 1015.6 1015.5 0.4
20/09:30am 16.6 11.5 13.1 80 2.0 N 32 39 17 21 1015.5 - 0.0
20/09:00am 17.4 13.9 13.5 78 2.2 N 24 33 13 18 1015.5 1015.4 4.2
20/08:30am 17.0 14.0 11.9 72 2.8 NNW 19 26 10 14 1015.7 - 4.2
20/08:00am 17.0 13.0 9.2 60 4.1 NNW 20 26 11 14 1015.6 1015.5 4.2
20/07:30am 16.7 13.3 9.1 61 3.9 NW 17 24 9 13 1015.4 - 4.2
20/07:00am 16.3 12.4 8.5 60 4.0 NNW 19 24 10 13 1014.9 1014.8 4.2
20/06:30am 16.2 12.1 8.7 61 3.8 NNW 20 24 11 13 1014.7 - 4.2
20/06:00am 15.7 11.8 8.7 63 3.6 NNW 19 22 10 12 1014.6 1014.5 4.2
20/05:30am 15.8 14.3 11.8 77 2.2 WNW 11 13 6 7 1014.8 - 4.2
20/05:00am 16.0 13.3 11.8 76 2.3 NW 17 20 9 11 1015.0 1014.9 4.2
20/04:30am 16.1 12.5 11.7 75 2.4 W 22 26 12 14 1015.2 - 4.2
20/04:00am 15.4 12.6 11.2 76 2.2 WSW 17 20 9 11 1015.3 1015.2 4.2
20/03:30am 15.5 12.5 11.9 79 2.0 W 19 26 10 14 1015.3 - 4.2
20/03:00am 16.3 14.3 11.5 73 2.6 WNW 13 15 7 8 1015.7 1015.6 4.2
20/02:30am 15.9 13.9 11.5 75 2.4 NW 13 17 7 9 1016.0 - 4.2
20/02:00am 15.8 13.8 11.4 75 2.4 W 13 15 7 8 1016.4 1016.3 4.2
20/01:30am 16.0 14.0 11.6 75 2.4 W 13 19 7 10 1016.5 - 4.2
20/01:00am 15.8 13.4 11.4 75 2.4 W 15 17 8 9 1016.6 1016.5 4.2
20/12:30am 15.9 13.4 11.1 73 2.6 W 15 17 8 9 1016.6 - 4.2
20/12:00am 16.0 13.9 11.2 73 2.6 W 13 15 7 8 1016.6 1016.5 4.2
 
Date/Time
WST
Tmp

°C
App
Tmp
°C
Dew
Point
°C
Rel
Hum
%
Delta-T

°C
Wind Press
QNH
hPa
Press
MSL
hPa
Rain
since
9 am
mm
Dir
 
Spd
km/h
Gust
km/h
Spd
kts
Gust
kts
19/11:30pm 16.1 14.1 11.5 74 2.5 W 13 15 7 8 1016.7 - 4.2
19/11:00pm 16.1 13.8 11.7 75 2.4 W 15 20 8 11 1016.8 1016.8 4.2
19/10:30pm 16.1 13.5 11.9 76 2.3 W 17 20 9 11 1017.0 - 4.2
19/10:00pm 16.1 13.1 12.1 77 2.2 W 19 24 10 13 1017.1 1017.1 4.2
19/09:30pm 16.2 15.0 12.9 81 1.8 WSW 11 13 6 7 1017.2 - 4.2
19/09:00pm 15.8 15.3 12.7 82 1.7 WSW 7 13 4 7 1017.2 1017.2 4.2
19/08:30pm 15.7 13.8 13.0 84 1.5 S 15 17 8 9 1017.1 - 4.2
19/08:00pm 15.3 14.8 13.8 91 0.8 S 9 13 5 7 1017.0 1017.0 4.2
19/07:30pm 15.1 14.9 13.6 91 0.8 WNW 7 13 4 7 1016.8 - 2.6
19/07:00pm 15.4 14.1 13.6 89 1.0 WNW 13 13 7 7 1016.6 1016.5 2.0
19/06:30pm 15.6 13.3 12.9 84 1.5 W 17 22 9 12 1016.5 - 1.4
19/06:00pm 16.7 16.3 12.5 76 2.3 E 6 7 3 4 1016.2 1016.1 0.4
19/05:30pm 17.3 18.2 13.0 76 2.4 CALM 0 0 0 0 1016.3 - 0.4
19/05:00pm 17.0 17.0 12.3 74 2.6 S 4 6 2 3 1016.1 1016.0 0.4
19/04:30pm 17.5 16.4 12.0 70 3.0 S 9 13 5 7 1015.9 - 0.4
19/04:00pm 18.7 18.3 12.9 69 3.3 NNW 7 15 4 8 1016.0 1015.9 0.4
19/03:30pm 18.4 17.6 12.8 70 3.1 N 9 13 5 7 1016.1 - 0.4
19/03:00pm 18.3 17.2 13.0 71 3.0 N 11 17 6 9 1015.9 1015.8 0.4
19/02:30pm 17.3 16.8 12.8 75 2.5 NE 7 9 4 5 1015.8 - 0.4
19/02:00pm 17.5 17.2 12.6 73 2.7 N 6 9 3 5 1015.8 1015.7 0.4
19/01:30pm 17.8 17.0 12.9 73 2.7 NE 9 15 5 8 1015.8 - 0.4
19/01:00pm 17.2 16.3 12.5 74 2.6 NNE 9 13 5 7 1016.1 1016.0 0.4
19/12:30pm 18.4 17.7 13.3 72 2.9 N 9 17 5 9 1016.2 - 0.4
19/12:00pm 17.3 16.8 12.6 74 2.6 S 7 11 4 6 1016.6 1016.5 0.4
19/11:30am 17.5 16.7 13.0 75 2.5 SSE 9 13 5 7 1016.8 - 0.4
19/11:00am 16.9 16.2 13.2 79 2.1 SE 9 11 5 6 1016.9 1016.9 0.4
19/10:30am 16.2 15.6 13.5 84 1.5 S 9 11 5 6 1017.0 - 0.4
19/10:00am 15.9 16.2 14.6 92 0.7 SE 6 11 3 6 1017.0 1017.0 0.4
19/09:30am 14.5 10.5 13.0 91 0.8 SE 26 35 14 19 1017.0 - 0.2
19/09:00am 15.5 13.5 14.0 91 0.8 SE 17 22 9 12 1017.0 1017.0 6.2
19/08:30am 15.8 13.4 14.5 92 0.7 S 20 26 11 14 1016.7 - 6.2
19/08:00am 15.4 10.5 13.6 89 1.0 S 32 39 17 21 1016.2 1016.1 5.4
19/07:30am 15.8 11.0 12.9 83 1.6 WSW 30 39 16 21 1016.2 - 3.8
19/07:00am 16.1 12.8 11.5 74 2.5 SW 20 30 11 16 1015.8 1015.7 3.8
19/06:30am 15.3 13.7 12.8 85 1.4 WNW 13 20 7 11 1015.8 - 3.8
19/06:00am 15.1 13.3 12.1 82 1.6 W 13 17 7 9 1015.6 1015.5 3.8
19/05:30am 15.2 12.4 11.4 78 2.0 SSW 17 20 9 11 1015.2 - 3.8
19/05:00am 15.4 12.4 11.8 79 1.9 SSW 19 22 10 12 1015.1 1015.0 3.8
19/04:30am 14.7 10.4 12.2 85 1.4 S 26 30 14 16 1015.1 - 3.8
19/04:00am 15.0 9.4 13.2 89 1.0 S 35 43 19 23 1014.9 1014.8 3.6
19/03:30am 16.5 11.6 12.5 77 2.2 WSW 30 39 16 21 1015.0 - 3.6
19/03:00am 16.5 11.2 12.5 77 2.2 WSW 32 39 17 21 1015.1 1015.0 3.6
19/02:30am 16.8 11.8 12.1 74 2.6 WSW 30 37 16 20 1015.3 - 3.6
19/02:00am 16.5 10.9 11.6 73 2.7 WSW 32 41 17 22 1015.4 1015.3 3.6
19/01:30am 16.6 11.9 11.9 74 2.6 W 28 35 15 19 1015.5 - 3.6
19/01:00am 16.2 12.2 11.8 75 2.4 W 24 32 13 17 1015.6 1015.5 3.6
19/12:30am 16.1 11.9 11.1 72 2.7 WSW 24 35 13 19 1015.7 - 3.6
19/12:00am 16.0 11.8 11.0 72 2.7 W 24 33 13 18 1015.8 1015.7 3.6
 
Date/Time
WST
Tmp

°C
App
Tmp
°C
Dew
Point
°C
Rel
Hum
%
Delta-T

°C
Wind Press
QNH
hPa
Press
MSL
hPa
Rain
since
9 am
mm
Dir
 
Spd
km/h
Gust
km/h
Spd
kts
Gust
kts
18/11:30pm 15.8 10.6 10.3 70 2.9 WSW 28 35 15 19 1016.0 - 3.6
18/11:00pm 16.0 10.9 10.7 71 2.8 WSW 28 39 15 21 1016.0 1015.9 3.6
18/10:30pm 15.9 11.4 11.3 74 2.5 WSW 26 33 14 18 1016.1 - 3.6
18/10:00pm 15.9 11.4 11.3 74 2.5 WSW 26 32 14 17 1016.2 1016.1 3.6
18/09:30pm 15.9 10.9 11.1 73 2.6 WSW 28 37 15 20 1016.0 - 3.6
18/09:00pm 15.6 11.7 12.0 79 2.0 W 24 33 13 18 1015.8 1015.7 3.6
18/08:30pm 15.2 9.8 12.3 83 1.6 W 32 46 17 25 1015.8 - 3.6
18/08:00pm 16.0 10.8 12.7 81 1.8 W 32 43 17 23 1015.4 1015.3 3.6
18/07:30pm 15.9 10.4 12.3 79 2.0 W 33 46 18 25 1015.1 - 3.6
18/07:00pm 15.1 9.6 12.6 85 1.4 W 33 46 18 25 1014.8 1014.7 3.6
18/06:30pm 15.9 10.8 13.2 84 1.5 W 32 44 17 24 1014.6 - 3.4
18/06:05pm 15.6 10.2 12.9 84 1.5 W 33 52 18 28 1014.2 - 3.2
18/06:00pm 15.9 9.7 12.6 81 1.8 W 37 52 20 28 1014.3 1014.2 3.0
18/05:30pm 15.9 10.4 12.6 81 1.8 W 33 44 18 24 1013.9 - 3.0
18/05:00pm 16.1 9.7 13.2 83 1.6 W 39 52 21 28 1013.8 1013.7 3.0
18/04:30pm 15.9 11.6 14.4 91 0.9 W 30 39 16 21 1013.6 - 3.0
18/04:08pm 15.7 10.2 13.5 87 1.2 W 35 54 19 29 1013.7 - 2.4
18/04:00pm 15.7 11.6 13.9 89 1.0 W 28 39 15 21 1013.6 1013.5 2.2
18/03:45pm 15.1 8.6 13.0 87 1.2 W 39 61 21 33 1014.1 - 1.6
18/03:30pm 15.4 8.8 12.7 84 1.5 W 39 52 21 28 1014.0 - 1.2
18/03:00pm 17.6 9.6 12.3 71 2.9 W 46 59 25 32 1013.7 1013.6 0.8
18/02:30pm 17.5 10.5 12.4 72 2.8 W 41 54 22 29 1013.5 - 0.8
18/02:05pm 18.1 11.1 11.2 64 3.8 W 39 57 21 31 1013.4 - 0.8
18/02:00pm 17.4 10.6 12.1 71 2.9 W 39 54 21 29 1013.3 1013.2 0.8
18/01:40pm 18.6 12.1 13.0 70 3.2 W 39 57 21 31 1013.4 - 0.8
18/01:30pm 18.1 10.5 11.7 66 3.5 W 43 57 23 31 1013.6 - 0.8
18/01:00pm 17.1 9.5 12.4 74 2.6 W 44 59 24 32 1013.6 1013.5 0.8
18/12:39pm 16.3 8.9 12.5 78 2.1 W 43 65 23 35 1013.9 - 0.6
18/12:30pm 18.1 11.1 13.8 76 2.5 W 43 59 23 32 1013.8 - 0.6
18/12:10pm 15.4 7.0 12.3 82 1.7 W 48 67 26 36 1014.2 - 0.6
18/12:00pm 17.2 9.0 11.7 70 3.0 W 46 61 25 33 1014.2 1014.1 0.2
18/11:30am 17.3 10.1 12.0 71 2.9 W 41 56 22 30 1014.2 - 0.2
18/11:07am 17.1 10.6 13.0 77 2.3 W 39 57 21 31 1014.4 - 0.2
18/11:00am 17.0 8.7 12.5 75 2.5 W 48 59 26 32 1014.5 1014.4 0.2
18/10:30am 15.7 7.4 11.5 76 2.3 W 46 59 25 32 1014.6 - 0.2

Latest Capital City Observations: Canberra | Sydney | Melbourne | Brisbane | Adelaide | Perth | Hobart | Darwin

Other Formats:

Comma delimited format used in spreadsheet applications
http://www.bom.gov.au/fwo/IDW60901/IDW60901.94602.axf

JavaScript Object Notation format (JSON) in row-major order
http://www.bom.gov.au/fwo/IDW60901/IDW60901.94602.json